Flight Track Log - Related Links

Times and Time Zones

All times are in EDT time to prevent confusion due to time zone crossing. See the UAL4236 flight status page for this flight to view local times or setup timezone preferences in your user account.

Time Position Orientation Groundspeed Altitude Reporting Facility
EDT Latitude Longitude Course Direction KTS MPH feet Rate Location/Type
Sat 10:39:30 AM 29.9617 -95.3436 276° West 152 175 800  Level Houston Center
Sat 10:40:49 AM 29.9119 -95.3953 222° Southwest 224 258 3,000 1,471 Climbing Houston Center
Sat 10:41:12 AM 29.9064 -95.4072 242° Southwest 218 251 3,300 2,250 Climbing Houston Center
Sat 10:41:45 AM 29.8789 -95.4500 233° Southwest 240 276 5,100 3,000 Climbing Houston Center
Sat 10:42:00 AM 30.0180 -95.6617 277° West  Level FlightAware Approximate
Sat 10:42:14 AM 29.8606 -95.4822 237° Southwest 236 272 6,400  Level Houston Center
Sat 10:42:46 AM 29.8608 -95.5267 270° West 253 291 7,600 2,129 Climbing Houston Center
Sat 10:43:00 AM 30.0302 -95.7716 277° West  Level FlightAware Approximate
Sat 10:43:16 AM 29.8747 -95.5597 296° West 249 287 8,600  Level Houston Center
Sat 10:44:00 AM 30.0402 -95.8817 276° West  Level FlightAware Approximate
Sat 10:44:17 AM 29.9050 -95.6381 294° West 264 304 10,500  Level Houston Center
Sat 10:45:00 AM 30.0498 -95.9973 276° West  Level FlightAware Approximate
Sat 10:45:19 AM 29.9386 -95.7253 294° West 289 333 11,500  Level Houston Center
Sat 10:46:21 AM 29.9764 -95.8214 294° West 325 374 12,500 1,171 Climbing Houston Center
Sat 10:47:22 AM 30.0158 -95.9228 294° West 344 396 13,900 1,463 Climbing Houston Center
Sat 10:48:24 AM 30.0619 -96.0403 294° West 344 396 15,500 1,355 Climbing Houston Center
Sat 10:49:26 AM 30.0842 -96.1467 284° West 344 396 16,700 1,122 Climbing Houston Center
Sat 10:50:27 AM 30.1008 -96.2572 280° West 351 404 17,800 927 Climbing Houston Center
Sat 10:51:29 AM 30.1189 -96.3711 280° West 360 414 18,600 919 Climbing Houston Center
Sat 10:52:31 AM 30.1369 -96.4956 280° West 372 428 19,700 1,073 Climbing Houston Center
Sat 10:53:32 AM 30.1556 -96.6164 280° West 377 434 20,800 1,024 Climbing Houston Center
Sat 10:54:34 AM 30.1733 -96.7378 280° West 379 436 21,800 968 Climbing Houston Center
Sat 10:55:36 AM 30.1922 -96.8603 280° West 382 440 22,800 1,024 Climbing Houston Center
Sat 10:56:37 AM 30.2097 -96.9828 279° West 381 438 23,900 1,024 Climbing Houston Center
Sat 10:57:39 AM 30.2278 -97.1022 280° West 376 433 24,900 1,065 Climbing Houston Center
Sat 10:58:41 AM 30.2481 -97.2419 280° West 373 429 26,100 1,073 Climbing Houston Center
Sat 10:59:42 AM 30.2661 -97.3619 280° West 374 430 27,100 1,024 Climbing Houston Center
Sat 11:00:44 AM 30.2833 -97.4800 280° West 368 423 28,200 1,024 Climbing Houston Center
Sat 11:01:45 AM 30.3000 -97.5961 279° West 363 418 29,200 976 Climbing Houston Center
Sat 11:02:47 AM 30.3158 -97.7133 279° West 363 418 30,200 1,016 Climbing Houston Center
Sat 11:03:49 AM 30.3325 -97.8283 280° West 359 413 31,300 1,024 Climbing Houston Center
Sat 11:04:50 AM 30.3492 -97.9444 279° West 359 413 32,300 976 Climbing Houston Center
Sat 11:05:52 AM 30.3653 -98.0617 279° West 365 420 33,300 823 Climbing Houston Center
Sat 11:06:54 AM 30.3819 -98.1797 279° West 367 422 34,000 488 Climbing Houston Center
Sat 11:07:55 AM 30.3992 -98.3025 279° West 382 440 34,300 634 Climbing Houston Center
Sat 11:08:57 AM 30.4164 -98.4256 279° West 382 440 35,300 823 Climbing Houston Center
Sat 11:09:59 AM 30.4311 -98.5444 278° West 371 427 36,000 341 Climbing Houston Center
Sat 11:11:00 AM 30.4508 -98.6894 279° West 384 442 36,000  Level Houston Center
Sat 11:12:02 AM 30.4672 -98.8111 279° West 380 437 36,000  Level Houston Center
Sat 11:13:04 AM 30.4836 -98.9317 279° West 376 433 36,000  Level Houston Center
Sat 11:14:05 AM 30.5006 -99.0517 279° West 373 429 36,000  Level Houston Center
Sat 11:15:07 AM 30.5150 -99.1597 279° West 371 427 36,000  Level Houston Center
Sat 11:16:09 AM 30.5297 -99.2772 278° West 371 427 36,000  Level Houston Center
Sat 11:17:11 AM 30.5478 -99.4192 278° West 373 429 36,000  Level Houston Center
Sat 11:18:12 AM 30.5647 -99.5400 279° West 379 436 36,000  Level Houston Center
Sat 11:19:14 AM 30.5808 -99.6625 279° West 385 443 36,000  Level Houston Center
Sat 11:20:16 AM 30.5936 -99.7828 277° West 377 434 36,000  Level Houston Center
Sat 11:21:18 AM 30.6161 -99.9022 282° West 386 444 36,000  Level Houston Center
Sat 11:22:20 AM 30.6397 -100.0186 283° West 377 434 36,000  Level Houston Center
Sat 11:23:21 AM 30.6689 -100.1606 283° West 386 444 36,000  Level Houston Center
Sat 11:24:23 AM 30.6931 -100.2800 283° West 386 444 36,000  Level Houston Center
Sat 11:25:25 AM 30.7167 -100.4022 283° West 390 449 36,000  Level Houston Center
Sat 11:26:27 AM 30.7392 -100.5189 283° West 379 436 36,000  Level Houston Center
Sat 11:27:29 AM 30.7636 -100.6369 284° West 375 432 36,000  Level Houston Center
Sat 11:28:30 AM 30.7864 -100.7500 283° West 363 418 36,000  Level Houston Center
Sat 11:29:32 AM 30.8125 -100.8892 282° West 368 423 36,000  Level Houston Center
Sat 11:30:34 AM 30.8356 -101.0050 283° West 372 428 36,000  Level Houston Center
Sat 11:31:36 AM 30.8581 -101.1236 282° West 374 430 36,000  Level Houston Center
Sat 11:32:38 AM 30.8825 -101.2408 284° West 373 429 36,000 -48 Level Houston Center
Sat 11:33:40 AM 30.9047 -101.3600 282° West 376 433 35,900  Descending Houston Center
Sat 11:34:14 AM 30.9206 -101.4439 282° West 376 433 36,000 63 Climbing Albuquerque Center
Sat 11:35:16 AM 30.9408 -101.5639 281° West 376 433 36,000  Level Albuquerque Center
Sat 11:36:18 AM 30.9644 -101.6831 283° West 378 435 36,000  Level Albuquerque Center
Sat 11:37:19 AM 30.9872 -101.8011 283° West 375 432 36,000  Level Albuquerque Center
Sat 11:38:21 AM 31.0114 -101.9314 282° West 375 432 36,000  Level Albuquerque Center
Sat 11:39:23 AM 31.0336 -102.0553 282° West 384 442 36,000  Level Albuquerque Center
Sat 11:40:24 AM 31.0544 -102.1725 282° West 374 430 36,000  Level Albuquerque Center
Sat 11:41:26 AM 31.0772 -102.2925 283° West 376 433 36,000  Level Albuquerque Center
Sat 11:42:28 AM 31.0989 -102.4106 282° West 375 432 36,000  Level Albuquerque Center
Sat 11:43:29 AM 31.1231 -102.5478 282° West 375 432 36,000  Level Albuquerque Center
Sat 11:44:31 AM 31.1447 -102.6664 282° West 373 429 36,000  Level Albuquerque Center
Sat 11:45:32 AM 31.1664 -102.7875 282° West 377 434 36,000  Level Albuquerque Center
Sat 11:46:34 AM 31.1881 -102.9092 282° West 381 438 36,000  Level Albuquerque Center
Sat 11:47:36 AM 31.2094 -103.0300 282° West 380 437 36,000  Level Albuquerque Center
Sat 11:48:37 AM 31.2303 -103.1503 281° West 379 436 36,000  Level Albuquerque Center
Sat 11:49:39 AM 31.2514 -103.2719 282° West 382 440 36,000  Level Albuquerque Center
Sat 11:50:40 AM 31.2731 -103.3925 282° West 380 437 36,000  Level Albuquerque Center
Sat 11:51:42 AM 31.2986 -103.5389 282° West 382 440 36,000  Level Albuquerque Center
Sat 11:52:43 AM 31.3192 -103.6589 281° West 379 436 36,000  Level Albuquerque Center
Sat 11:53:45 AM 31.3392 -103.7797 281° West 379 436 36,000  Level Albuquerque Center
Sat 11:54:47 AM 31.3589 -103.8881 282° West 384 442 36,000  Level Albuquerque Center
Sat 11:55:48 AM 31.3828 -104.0325 281° West 381 438 36,000  Level Albuquerque Center
Sat 11:56:50 AM 31.4031 -104.1533 281° West 380 437 36,000  Level Albuquerque Center
Sat 11:57:51 AM 31.4247 -104.2756 282° West 384 442 36,000 -390 Level Albuquerque Center
Sat 11:58:53 AM 31.4444 -104.3939 281° West 376 433 35,200 -1,268 Descending Albuquerque Center
Sat 11:59:54 AM 31.4589 -104.5064 279° West 358 412 33,400 -1,805 Descending Albuquerque Center
Sat 12:00:56 PM 31.4703 -104.6219 277° West 358 412 31,500 -1,902 Descending Albuquerque Center
Sat 12:01:57 PM 31.4842 -104.7433 278° West 372 428 29,500 -2,098 Descending Albuquerque Center
Sat 12:02:59 PM 31.4992 -104.8914 277° West 381 438 27,200 -2,049 Descending Albuquerque Center
Sat 12:04:00 PM 31.5117 -105.0175 277° West 389 448 25,300 -1,854 Descending Albuquerque Center
Sat 12:05:02 PM 31.5253 -105.1486 277° West 403 464 23,400 -1,902 Descending Albuquerque Center
Sat 12:06:03 PM 31.5389 -105.2811 277° West 409 471 21,400 -2,098 Descending Albuquerque Center
Sat 12:07:05 PM 31.5497 -105.4075 276° West 392 451 19,100 -2,227 Descending Albuquerque Center
Sat 12:08:15 PM 31.5633 -105.5614 276° West 362 417 16,500 -2,262 Descending Albuquerque Center
Sat 12:09:15 PM 31.5742 -105.6761 276° West 355 409 14,200 -2,211 Descending Albuquerque Center
Sat 12:10:09 PM 31.5853 -105.7800 277° West 359 413 12,300 -1,409 Descending Albuquerque Center
Sat 12:11:10 PM 31.6272 -105.8797 296° West 316 364 11,500 -1,082 Descending Albuquerque Center
Sat 12:12:11 PM 31.6672 -105.9569 301° West 266 306 10,100 -1,500 Descending Albuquerque Center
Sat 12:13:14 PM 31.7028 -106.0306 300° West 267 307 8,400 -1,056 Descending Albuquerque Center
Sat 12:14:16 PM 31.7378 -106.1003 301° West 246 283 7,900 -732 Descending Albuquerque Center
Sat 12:15:17 PM 31.7597 -106.1619 293° West 210 242 6,900 -984 Descending Albuquerque Center

Login

Don't have an account? Register now (free) for customized features, flight alerts, and more!